sensor_id;sensor_type;location;lat;lon;timestamp;P1;durP1;ratioP1;P2;durP2;ratioP2
4758;SDS011;2393;50.560;12.636;2023-05-20T00:01:21;12.97;;;9.20;;
4758;SDS011;2393;50.560;12.636;2023-05-20T00:03:49;15.20;;;9.50;;
4758;SDS011;2393;50.560;12.636;2023-05-20T00:06:18;12.90;;;8.70;;
4758;SDS011;2393;50.560;12.636;2023-05-20T00:08:47;16.87;;;9.90;;
4758;SDS011;2393;50.560;12.636;2023-05-20T00:11:15;17.03;;;9.67;;
4758;SDS011;2393;50.560;12.636;2023-05-20T00:13:44;14.57;;;9.80;;
4758;SDS011;2393;50.560;12.636;2023-05-20T00:16:12;19.20;;;9.43;;
4758;SDS011;2393;50.560;12.636;2023-05-20T00:18:40;16.83;;;11.03;;
4758;SDS011;2393;50.560;12.636;2023-05-20T00:21:08;20.20;;;9.40;;
4758;SDS011;2393;50.560;12.636;2023-05-20T00:23:37;18.83;;;9.83;;
4758;SDS011;2393;50.560;12.636;2023-05-20T00:26:06;18.30;;;11.70;;
4758;SDS011;2393;50.560;12.636;2023-05-20T00:28:35;18.30;;;10.53;;
4758;SDS011;2393;50.560;12.636;2023-05-20T00:31:03;17.80;;;11.20;;
4758;SDS011;2393;50.560;12.636;2023-05-20T00:33:31;24.10;;;12.50;;
4758;SDS011;2393;50.560;12.636;2023-05-20T00:36:01;21.00;;;12.23;;
4758;SDS011;2393;50.560;12.636;2023-05-20T00:38:30;18.53;;;12.77;;
4758;SDS011;2393;50.560;12.636;2023-05-20T00:40:58;22.00;;;13.17;;
4758;SDS011;2393;50.560;12.636;2023-05-20T00:43:27;22.23;;;12.70;;
4758;SDS011;2393;50.560;12.636;2023-05-20T00:45:56;20.67;;;13.27;;
4758;SDS011;2393;50.560;12.636;2023-05-20T00:48:24;17.13;;;11.10;;
4758;SDS011;2393;50.560;12.636;2023-05-20T00:50:52;19.60;;;12.50;;
4758;SDS011;2393;50.560;12.636;2023-05-20T00:53:20;25.30;;;13.70;;
4758;SDS011;2393;50.560;12.636;2023-05-20T00:55:49;22.70;;;13.43;;
4758;SDS011;2393;50.560;12.636;2023-05-20T00:58:17;25.50;;;13.27;;
4758;SDS011;2393;50.560;12.636;2023-05-20T01:00:47;21.60;;;12.10;;
4758;SDS011;2393;50.560;12.636;2023-05-20T01:03:16;20.40;;;12.20;;
4758;SDS011;2393;50.560;12.636;2023-05-20T01:05:44;24.00;;;12.30;;
4758;SDS011;2393;50.560;12.636;2023-05-20T01:08:12;24.70;;;13.67;;
4758;SDS011;2393;50.560;12.636;2023-05-20T01:10:41;21.77;;;12.07;;
4758;SDS011;2393;50.560;12.636;2023-05-20T01:13:15;20.37;;;12.07;;
4758;SDS011;2393;50.560;12.636;2023-05-20T01:15:49;18.70;;;11.60;;
4758;SDS011;2393;50.560;12.636;2023-05-20T01:18:18;23.80;;;12.77;;
4758;SDS011;2393;50.560;12.636;2023-05-20T01:20:48;30.70;;;12.87;;
4758;SDS011;2393;50.560;12.636;2023-05-20T01:23:20;22.07;;;12.47;;
4758;SDS011;2393;50.560;12.636;2023-05-20T01:25:48;27.60;;;11.20;;
4758;SDS011;2393;50.560;12.636;2023-05-20T01:28:17;22.70;;;13.37;;
4758;SDS011;2393;50.560;12.636;2023-05-20T01:30:46;22.63;;;13.90;;
4758;SDS011;2393;50.560;12.636;2023-05-20T01:33:20;21.63;;;12.60;;
4758;SDS011;2393;50.560;12.636;2023-05-20T01:35:50;21.70;;;12.87;;
4758;SDS011;2393;50.560;12.636;2023-05-20T01:38:21;18.20;;;12.37;;
4758;SDS011;2393;50.560;12.636;2023-05-20T01:40:50;19.07;;;11.77;;
4758;SDS011;2393;50.560;12.636;2023-05-20T01:43:20;20.07;;;12.97;;
4758;SDS011;2393;50.560;12.636;2023-05-20T01:45:49;22.53;;;12.63;;
4758;SDS011;2393;50.560;12.636;2023-05-20T01:48:17;23.27;;;11.83;;
4758;SDS011;2393;50.560;12.636;2023-05-20T01:50:45;22.47;;;13.07;;
4758;SDS011;2393;50.560;12.636;2023-05-20T01:53:13;23.20;;;13.87;;
4758;SDS011;2393;50.560;12.636;2023-05-20T01:55:43;19.87;;;12.73;;
4758;SDS011;2393;50.560;12.636;2023-05-20T01:58:11;18.27;;;12.43;;
4758;SDS011;2393;50.560;12.636;2023-05-20T02:00:39;22.00;;;13.23;;
4758;SDS011;2393;50.560;12.636;2023-05-20T02:03:07;20.73;;;12.97;;
4758;SDS011;2393;50.560;12.636;2023-05-20T02:05:35;25.43;;;12.50;;
4758;SDS011;2393;50.560;12.636;2023-05-20T02:08:04;29.33;;;14.00;;
4758;SDS011;2393;50.560;12.636;2023-05-20T02:10:32;21.57;;;13.73;;
4758;SDS011;2393;50.560;12.636;2023-05-20T02:13:02;27.50;;;14.63;;
4758;SDS011;2393;50.560;12.636;2023-05-20T02:15:31;21.10;;;13.83;;
4758;SDS011;2393;50.560;12.636;2023-05-20T02:18:01;26.87;;;14.00;;
4758;SDS011;2393;50.560;12.636;2023-05-20T02:20:31;20.30;;;11.97;;
4758;SDS011;2393;50.560;12.636;2023-05-20T02:23:02;23.83;;;13.50;;
4758;SDS011;2393;50.560;12.636;2023-05-20T02:25:31;16.70;;;10.80;;
4758;SDS011;2393;50.560;12.636;2023-05-20T02:27:59;22.70;;;13.10;;
4758;SDS011;2393;50.560;12.636;2023-05-20T02:30:32;22.97;;;11.97;;
4758;SDS011;2393;50.560;12.636;2023-05-20T02:33:01;25.20;;;13.37;;
4758;SDS011;2393;50.560;12.636;2023-05-20T02:35:29;23.50;;;12.63;;
4758;SDS011;2393;50.560;12.636;2023-05-20T02:37:58;27.00;;;14.13;;
4758;SDS011;2393;50.560;12.636;2023-05-20T02:40:26;27.00;;;15.30;;
4758;SDS011;2393;50.560;12.636;2023-05-20T02:42:54;27.30;;;15.07;;
4758;SDS011;2393;50.560;12.636;2023-05-20T02:45:22;29.90;;;16.17;;
4758;SDS011;2393;50.560;12.636;2023-05-20T02:47:52;28.40;;;14.20;;
4758;SDS011;2393;50.560;12.636;2023-05-20T02:50:20;26.03;;;14.33;;
4758;SDS011;2393;50.560;12.636;2023-05-20T02:52:48;27.23;;;14.93;;
4758;SDS011;2393;50.560;12.636;2023-05-20T02:55:17;27.20;;;16.07;;
4758;SDS011;2393;50.560;12.636;2023-05-20T02:57:45;28.63;;;14.87;;
4758;SDS011;2393;50.560;12.636;2023-05-20T03:00:13;26.17;;;15.23;;
4758;SDS011;2393;50.560;12.636;2023-05-20T03:02:41;30.63;;;15.80;;
4758;SDS011;2393;50.560;12.636;2023-05-20T03:05:11;24.10;;;14.57;;
4758;SDS011;2393;50.560;12.636;2023-05-20T03:07:39;27.23;;;14.50;;
4758;SDS011;2393;50.560;12.636;2023-05-20T03:10:08;27.10;;;14.87;;
4758;SDS011;2393;50.560;12.636;2023-05-20T03:12:38;31.20;;;15.60;;
4758;SDS011;2393;50.560;12.636;2023-05-20T03:15:07;25.83;;;15.67;;
4758;SDS011;2393;50.560;12.636;2023-05-20T03:17:36;33.60;;;17.73;;
4758;SDS011;2393;50.560;12.636;2023-05-20T03:20:05;29.37;;;16.47;;
4758;SDS011;2393;50.560;12.636;2023-05-20T03:22:35;30.30;;;17.37;;
4758;SDS011;2393;50.560;12.636;2023-05-20T03:25:04;25.20;;;15.53;;
4758;SDS011;2393;50.560;12.636;2023-05-20T03:27:33;29.67;;;15.50;;
4758;SDS011;2393;50.560;12.636;2023-05-20T03:30:02;33.97;;;17.57;;
4758;SDS011;2393;50.560;12.636;2023-05-20T03:32:31;30.57;;;17.67;;
4758;SDS011;2393;50.560;12.636;2023-05-20T03:34:59;26.33;;;15.70;;
4758;SDS011;2393;50.560;12.636;2023-05-20T03:37:27;28.77;;;17.13;;
4758;SDS011;2393;50.560;12.636;2023-05-20T03:39:57;34.00;;;17.17;;
4758;SDS011;2393;50.560;12.636;2023-05-20T03:42:25;37.70;;;17.17;;
4758;SDS011;2393;50.560;12.636;2023-05-20T03:44:53;42.13;;;16.70;;
4758;SDS011;2393;50.560;12.636;2023-05-20T03:47:21;31.07;;;16.73;;
4758;SDS011;2393;50.560;12.636;2023-05-20T03:49:50;31.27;;;16.47;;
4758;SDS011;2393;50.560;12.636;2023-05-20T03:52:18;32.87;;;16.17;;
4758;SDS011;2393;50.560;12.636;2023-05-20T03:54:46;39.03;;;17.47;;
4758;SDS011;2393;50.560;12.636;2023-05-20T03:57:15;31.90;;;15.90;;
4758;SDS011;2393;50.560;12.636;2023-05-20T03:59:45;28.97;;;16.50;;
4758;SDS011;2393;50.560;12.636;2023-05-20T04:02:13;34.67;;;18.40;;
4758;SDS011;2393;50.560;12.636;2023-05-20T04:04:42;32.90;;;17.40;;
4758;SDS011;2393;50.560;12.636;2023-05-20T04:07:11;34.00;;;17.27;;
4758;SDS011;2393;50.560;12.636;2023-05-20T04:09:40;34.50;;;16.97;;
4758;SDS011;2393;50.560;12.636;2023-05-20T04:12:08;31.70;;;15.87;;
4758;SDS011;2393;50.560;12.636;2023-05-20T04:14:38;35.73;;;17.83;;
4758;SDS011;2393;50.560;12.636;2023-05-20T04:17:07;31.80;;;16.17;;
4758;SDS011;2393;50.560;12.636;2023-05-20T04:19:36;30.63;;;16.33;;
4758;SDS011;2393;50.560;12.636;2023-05-20T04:22:04;30.37;;;15.93;;
4758;SDS011;2393;50.560;12.636;2023-05-20T04:24:32;32.50;;;16.80;;
4758;SDS011;2393;50.560;12.636;2023-05-20T04:27:00;30.20;;;16.47;;
4758;SDS011;2393;50.560;12.636;2023-05-20T04:29:29;30.20;;;15.53;;
4758;SDS011;2393;50.560;12.636;2023-05-20T04:32:01;28.03;;;14.77;;
4758;SDS011;2393;50.560;12.636;2023-05-20T04:34:29;34.70;;;16.73;;
4758;SDS011;2393;50.560;12.636;2023-05-20T04:37:00;36.53;;;16.07;;
4758;SDS011;2393;50.560;12.636;2023-05-20T04:39:28;30.70;;;16.90;;
4758;SDS011;2393;50.560;12.636;2023-05-20T04:41:56;27.67;;;15.03;;
4758;SDS011;2393;50.560;12.636;2023-05-20T04:44:26;25.00;;;14.47;;
4758;SDS011;2393;50.560;12.636;2023-05-20T04:46:55;26.27;;;15.10;;
4758;SDS011;2393;50.560;12.636;2023-05-20T04:49:26;30.60;;;15.57;;
4758;SDS011;2393;50.560;12.636;2023-05-20T04:51:55;28.33;;;15.30;;
4758;SDS011;2393;50.560;12.636;2023-05-20T04:54:24;22.70;;;13.57;;
4758;SDS011;2393;50.560;12.636;2023-05-20T04:56:52;29.17;;;14.50;;
4758;SDS011;2393;50.560;12.636;2023-05-20T04:59:20;31.60;;;15.77;;
4758;SDS011;2393;50.560;12.636;2023-05-20T05:01:49;26.20;;;13.87;;
4758;SDS011;2393;50.560;12.636;2023-05-20T05:04:17;38.43;;;17.30;;
4758;SDS011;2393;50.560;12.636;2023-05-20T05:06:47;26.40;;;15.47;;
4758;SDS011;2393;50.560;12.636;2023-05-20T05:09:16;30.23;;;14.07;;
4758;SDS011;2393;50.560;12.636;2023-05-20T05:11:45;27.67;;;13.13;;
4758;SDS011;2393;50.560;12.636;2023-05-20T05:14:13;23.80;;;13.73;;
4758;SDS011;2393;50.560;12.636;2023-05-20T05:16:41;26.67;;;15.70;;
4758;SDS011;2393;50.560;12.636;2023-05-20T05:19:10;21.53;;;13.93;;
4758;SDS011;2393;50.560;12.636;2023-05-20T05:21:39;22.70;;;12.37;;
4758;SDS011;2393;50.560;12.636;2023-05-20T05:24:09;24.67;;;12.13;;
4758;SDS011;2393;50.560;12.636;2023-05-20T05:26:37;25.90;;;13.10;;
4758;SDS011;2393;50.560;12.636;2023-05-20T05:29:05;22.73;;;13.40;;
4758;SDS011;2393;50.560;12.636;2023-05-20T05:31:35;29.13;;;13.37;;
4758;SDS011;2393;50.560;12.636;2023-05-20T05:34:03;20.20;;;12.50;;
4758;SDS011;2393;50.560;12.636;2023-05-20T05:36:32;25.10;;;12.93;;
4758;SDS011;2393;50.560;12.636;2023-05-20T05:39:00;22.10;;;13.10;;
4758;SDS011;2393;50.560;12.636;2023-05-20T05:41:30;25.77;;;13.13;;
4758;SDS011;2393;50.560;12.636;2023-05-20T05:43:58;22.70;;;12.30;;
4758;SDS011;2393;50.560;12.636;2023-05-20T05:46:27;20.90;;;12.10;;
4758;SDS011;2393;50.560;12.636;2023-05-20T05:48:57;23.30;;;13.30;;
4758;SDS011;2393;50.560;12.636;2023-05-20T05:51:25;22.10;;;11.60;;
4758;SDS011;2393;50.560;12.636;2023-05-20T05:53:55;19.33;;;12.30;;
4758;SDS011;2393;50.560;12.636;2023-05-20T05:56:23;25.23;;;13.50;;
4758;SDS011;2393;50.560;12.636;2023-05-20T05:58:52;22.03;;;12.73;;
4758;SDS011;2393;50.560;12.636;2023-05-20T06:01:20;20.50;;;12.13;;
4758;SDS011;2393;50.560;12.636;2023-05-20T06:03:49;19.53;;;12.90;;
4758;SDS011;2393;50.560;12.636;2023-05-20T06:06:18;23.87;;;13.30;;
4758;SDS011;2393;50.560;12.636;2023-05-20T06:08:47;24.87;;;12.50;;
4758;SDS011;2393;50.560;12.636;2023-05-20T06:11:15;21.37;;;12.57;;
4758;SDS011;2393;50.560;12.636;2023-05-20T06:13:43;20.43;;;12.43;;
4758;SDS011;2393;50.560;12.636;2023-05-20T06:16:12;22.50;;;12.23;;
4758;SDS011;2393;50.560;12.636;2023-05-20T06:18:41;20.60;;;11.90;;
4758;SDS011;2393;50.560;12.636;2023-05-20T06:21:09;21.30;;;11.70;;
4758;SDS011;2393;50.560;12.636;2023-05-20T06:23:37;22.20;;;12.77;;
4758;SDS011;2393;50.560;12.636;2023-05-20T06:26:08;21.50;;;11.90;;
4758;SDS011;2393;50.560;12.636;2023-05-20T06:28:37;17.83;;;11.10;;
4758;SDS011;2393;50.560;12.636;2023-05-20T06:31:06;22.00;;;12.30;;
4758;SDS011;2393;50.560;12.636;2023-05-20T06:33:37;21.93;;;12.33;;
4758;SDS011;2393;50.560;12.636;2023-05-20T06:36:10;19.80;;;11.90;;
4758;SDS011;2393;50.560;12.636;2023-05-20T06:38:39;26.77;;;11.93;;
4758;SDS011;2393;50.560;12.636;2023-05-20T06:41:07;23.47;;;12.10;;
4758;SDS011;2393;50.560;12.636;2023-05-20T06:43:35;22.70;;;12.30;;
4758;SDS011;2393;50.560;12.636;2023-05-20T06:46:08;19.40;;;10.77;;
4758;SDS011;2393;50.560;12.636;2023-05-20T06:48:43;22.10;;;11.80;;
4758;SDS011;2393;50.560;12.636;2023-05-20T06:51:11;20.20;;;11.47;;
4758;SDS011;2393;50.560;12.636;2023-05-20T06:53:39;15.13;;;9.87;;
4758;SDS011;2393;50.560;12.636;2023-05-20T06:56:07;17.17;;;10.80;;
4758;SDS011;2393;50.560;12.636;2023-05-20T06:58:35;22.37;;;10.93;;
4758;SDS011;2393;50.560;12.636;2023-05-20T07:01:03;18.57;;;10.23;;
4758;SDS011;2393;50.560;12.636;2023-05-20T07:03:31;15.83;;;10.50;;
4758;SDS011;2393;50.560;12.636;2023-05-20T07:06:01;16.93;;;10.37;;
4758;SDS011;2393;50.560;12.636;2023-05-20T07:08:29;21.37;;;10.70;;
4758;SDS011;2393;50.560;12.636;2023-05-20T07:10:58;19.47;;;9.37;;
4758;SDS011;2393;50.560;12.636;2023-05-20T07:13:26;17.63;;;10.53;;
4758;SDS011;2393;50.560;12.636;2023-05-20T07:15:54;15.97;;;10.07;;
4758;SDS011;2393;50.560;12.636;2023-05-20T07:18:22;16.13;;;9.50;;
4758;SDS011;2393;50.560;12.636;2023-05-20T07:20:52;14.70;;;9.90;;
4758;SDS011;2393;50.560;12.636;2023-05-20T07:23:46;16.00;;;10.40;;
4758;SDS011;2393;50.560;12.636;2023-05-20T07:26:14;13.73;;;9.63;;
4758;SDS011;2393;50.560;12.636;2023-05-20T07:28:42;10.83;;;8.10;;
4758;SDS011;2393;50.560;12.636;2023-05-20T07:31:12;16.57;;;10.40;;
4758;SDS011;2393;50.560;12.636;2023-05-20T07:33:42;17.63;;;10.30;;
4758;SDS011;2393;50.560;12.636;2023-05-20T07:36:11;12.00;;;8.93;;
4758;SDS011;2393;50.560;12.636;2023-05-20T07:38:41;13.93;;;9.47;;
4758;SDS011;2393;50.560;12.636;2023-05-20T07:41:28;12.27;;;8.50;;
4758;SDS011;2393;50.560;12.636;2023-05-20T07:43:56;12.33;;;9.10;;
4758;SDS011;2393;50.560;12.636;2023-05-20T07:46:25;12.23;;;8.77;;
4758;SDS011;2393;50.560;12.636;2023-05-20T07:48:53;17.13;;;9.57;;
4758;SDS011;2393;50.560;12.636;2023-05-20T07:51:21;13.63;;;8.90;;
4758;SDS011;2393;50.560;12.636;2023-05-20T07:53:49;15.93;;;10.40;;
4758;SDS011;2393;50.560;12.636;2023-05-20T07:56:18;12.23;;;7.70;;
4758;SDS011;2393;50.560;12.636;2023-05-20T07:58:52;11.13;;;7.30;;
4758;SDS011;2393;50.560;12.636;2023-05-20T08:01:23;9.00;;;7.40;;
4758;SDS011;2393;50.560;12.636;2023-05-20T08:03:52;11.73;;;7.93;;
4758;SDS011;2393;50.560;12.636;2023-05-20T08:06:23;12.60;;;9.07;;
4758;SDS011;2393;50.560;12.636;2023-05-20T08:08:55;13.60;;;8.50;;
4758;SDS011;2393;50.560;12.636;2023-05-20T08:11:28;11.30;;;7.83;;
4758;SDS011;2393;50.560;12.636;2023-05-20T08:13:58;12.33;;;7.77;;
4758;SDS011;2393;50.560;12.636;2023-05-20T08:16:31;10.73;;;6.70;;
4758;SDS011;2393;50.560;12.636;2023-05-20T08:19:00;11.33;;;7.20;;
4758;SDS011;2393;50.560;12.636;2023-05-20T08:21:28;10.43;;;6.00;;
4758;SDS011;2393;50.560;12.636;2023-05-20T08:23:56;7.60;;;6.30;;
4758;SDS011;2393;50.560;12.636;2023-05-20T08:26:24;10.30;;;5.80;;
4758;SDS011;2393;50.560;12.636;2023-05-20T08:28:53;8.93;;;5.67;;
4758;SDS011;2393;50.560;12.636;2023-05-20T08:31:23;14.57;;;5.70;;
4758;SDS011;2393;50.560;12.636;2023-05-20T08:33:52;9.10;;;5.70;;
4758;SDS011;2393;50.560;12.636;2023-05-20T08:36:20;10.00;;;7.40;;
4758;SDS011;2393;50.560;12.636;2023-05-20T08:38:49;8.60;;;6.47;;
4758;SDS011;2393;50.560;12.636;2023-05-20T08:41:17;8.70;;;5.50;;
4758;SDS011;2393;50.560;12.636;2023-05-20T08:43:47;7.30;;;5.40;;
4758;SDS011;2393;50.560;12.636;2023-05-20T08:46:18;9.60;;;5.70;;
4758;SDS011;2393;50.560;12.636;2023-05-20T08:48:49;11.47;;;6.63;;
4758;SDS011;2393;50.560;12.636;2023-05-20T08:51:19;7.83;;;5.43;;
4758;SDS011;2393;50.560;12.636;2023-05-20T08:53:49;7.50;;;5.20;;
4758;SDS011;2393;50.560;12.636;2023-05-20T08:56:18;7.27;;;5.20;;
4758;SDS011;2393;50.560;12.636;2023-05-20T08:58:47;6.47;;;5.50;;
4758;SDS011;2393;50.560;12.636;2023-05-20T09:01:15;9.97;;;4.50;;
4758;SDS011;2393;50.560;12.636;2023-05-20T09:03:44;8.00;;;5.57;;
4758;SDS011;2393;50.560;12.636;2023-05-20T09:06:14;7.90;;;5.63;;
4758;SDS011;2393;50.560;12.636;2023-05-20T09:08:47;5.30;;;4.80;;
4758;SDS011;2393;50.560;12.636;2023-05-20T09:11:17;7.43;;;5.47;;
4758;SDS011;2393;50.560;12.636;2023-05-20T09:13:48;7.40;;;5.70;;
4758;SDS011;2393;50.560;12.636;2023-05-20T09:16:16;8.37;;;4.63;;
4758;SDS011;2393;50.560;12.636;2023-05-20T09:18:45;6.10;;;5.40;;
4758;SDS011;2393;50.560;12.636;2023-05-20T09:21:14;7.10;;;5.50;;
4758;SDS011;2393;50.560;12.636;2023-05-20T09:23:45;6.87;;;5.50;;
4758;SDS011;2393;50.560;12.636;2023-05-20T09:26:16;8.97;;;4.73;;
4758;SDS011;2393;50.560;12.636;2023-05-20T09:28:44;7.10;;;5.50;;
4758;SDS011;2393;50.560;12.636;2023-05-20T09:31:14;10.23;;;5.20;;
4758;SDS011;2393;50.560;12.636;2023-05-20T09:33:42;9.40;;;5.27;;
4758;SDS011;2393;50.560;12.636;2023-05-20T09:36:10;7.50;;;5.70;;
4758;SDS011;2393;50.560;12.636;2023-05-20T09:38:43;5.93;;;5.37;;
4758;SDS011;2393;50.560;12.636;2023-05-20T09:41:13;12.00;;;5.60;;
4758;SDS011;2393;50.560;12.636;2023-05-20T09:43:42;9.20;;;5.10;;
4758;SDS011;2393;50.560;12.636;2023-05-20T09:46:11;8.63;;;5.00;;
4758;SDS011;2393;50.560;12.636;2023-05-20T09:48:40;8.63;;;5.33;;
4758;SDS011;2393;50.560;12.636;2023-05-20T09:51:09;5.77;;;4.07;;
4758;SDS011;2393;50.560;12.636;2023-05-20T09:53:38;6.07;;;5.30;;
4758;SDS011;2393;50.560;12.636;2023-05-20T09:56:09;7.70;;;4.53;;
4758;SDS011;2393;50.560;12.636;2023-05-20T09:58:38;8.03;;;4.40;;
4758;SDS011;2393;50.560;12.636;2023-05-20T10:01:09;7.57;;;4.53;;
4758;SDS011;2393;50.560;12.636;2023-05-20T10:03:37;13.83;;;6.20;;
4758;SDS011;2393;50.560;12.636;2023-05-20T10:06:12;5.93;;;4.73;;
4758;SDS011;2393;50.560;12.636;2023-05-20T10:09:01;6.97;;;5.17;;
4758;SDS011;2393;50.560;12.636;2023-05-20T10:11:43;7.13;;;5.47;;
4758;SDS011;2393;50.560;12.636;2023-05-20T10:14:25;7.03;;;4.80;;
4758;SDS011;2393;50.560;12.636;2023-05-20T10:17:11;8.60;;;4.90;;
4758;SDS011;2393;50.560;12.636;2023-05-20T10:19:44;5.70;;;4.13;;
4758;SDS011;2393;50.560;12.636;2023-05-20T10:22:12;6.47;;;4.80;;
4758;SDS011;2393;50.560;12.636;2023-05-20T10:24:41;5.40;;;4.57;;
4758;SDS011;2393;50.560;12.636;2023-05-20T10:27:12;5.67;;;5.13;;
4758;SDS011;2393;50.560;12.636;2023-05-20T10:29:43;15.10;;;5.00;;
4758;SDS011;2393;50.560;12.636;2023-05-20T10:32:23;5.03;;;4.60;;
4758;SDS011;2393;50.560;12.636;2023-05-20T10:34:57;8.53;;;5.20;;
4758;SDS011;2393;50.560;12.636;2023-05-20T10:37:27;6.97;;;4.90;;
4758;SDS011;2393;50.560;12.636;2023-05-20T10:40:05;5.03;;;4.57;;
4758;SDS011;2393;50.560;12.636;2023-05-20T10:42:35;6.30;;;4.97;;
4758;SDS011;2393;50.560;12.636;2023-05-20T10:45:04;5.60;;;4.40;;
4758;SDS011;2393;50.560;12.636;2023-05-20T10:47:33;5.10;;;4.60;;
4758;SDS011;2393;50.560;12.636;2023-05-20T10:50:03;6.60;;;5.20;;
4758;SDS011;2393;50.560;12.636;2023-05-20T10:52:33;7.80;;;5.70;;
4758;SDS011;2393;50.560;12.636;2023-05-20T10:55:03;5.97;;;4.60;;
4758;SDS011;2393;50.560;12.636;2023-05-20T10:57:32;7.93;;;4.50;;
4758;SDS011;2393;50.560;12.636;2023-05-20T11:00:02;6.20;;;5.50;;
4758;SDS011;2393;50.560;12.636;2023-05-20T11:02:31;6.30;;;4.40;;
4758;SDS011;2393;50.560;12.636;2023-05-20T11:05:00;5.73;;;4.87;;
4758;SDS011;2393;50.560;12.636;2023-05-20T11:07:30;7.00;;;5.90;;
4758;SDS011;2393;50.560;12.636;2023-05-20T11:09:59;6.07;;;4.93;;
4758;SDS011;2393;50.560;12.636;2023-05-20T11:12:27;17.73;;;5.10;;
4758;SDS011;2393;50.560;12.636;2023-05-20T11:14:55;7.63;;;4.93;;
4758;SDS011;2393;50.560;12.636;2023-05-20T11:17:25;5.60;;;5.03;;
4758;SDS011;2393;50.560;12.636;2023-05-20T11:19:53;7.00;;;5.40;;
4758;SDS011;2393;50.560;12.636;2023-05-20T11:22:21;7.40;;;4.83;;
4758;SDS011;2393;50.560;12.636;2023-05-20T11:24:49;8.27;;;5.10;;
4758;SDS011;2393;50.560;12.636;2023-05-20T11:27:18;5.27;;;4.77;;
4758;SDS011;2393;50.560;12.636;2023-05-20T11:29:48;10.47;;;6.03;;
4758;SDS011;2393;50.560;12.636;2023-05-20T11:32:18;8.70;;;6.50;;
4758;SDS011;2393;50.560;12.636;2023-05-20T11:34:49;6.47;;;5.30;;
4758;SDS011;2393;50.560;12.636;2023-05-20T11:37:18;15.27;;;6.60;;
4758;SDS011;2393;50.560;12.636;2023-05-20T11:39:47;8.07;;;6.57;;
4758;SDS011;2393;50.560;12.636;2023-05-20T11:42:15;17.10;;;6.70;;
4758;SDS011;2393;50.560;12.636;2023-05-20T11:44:43;7.80;;;6.23;;
4758;SDS011;2393;50.560;12.636;2023-05-20T11:47:12;6.43;;;5.80;;
4758;SDS011;2393;50.560;12.636;2023-05-20T11:49:42;12.33;;;5.60;;
4758;SDS011;2393;50.560;12.636;2023-05-20T11:52:16;6.27;;;5.47;;
4758;SDS011;2393;50.560;12.636;2023-05-20T11:54:44;6.80;;;5.80;;
4758;SDS011;2393;50.560;12.636;2023-05-20T11:57:18;6.63;;;5.37;;
4758;SDS011;2393;50.560;12.636;2023-05-20T11:59:47;7.53;;;6.33;;
4758;SDS011;2393;50.560;12.636;2023-05-20T12:02:16;9.40;;;6.50;;
4758;SDS011;2393;50.560;12.636;2023-05-20T12:04:44;8.57;;;5.33;;
4758;SDS011;2393;50.560;12.636;2023-05-20T12:07:13;5.67;;;5.13;;
4758;SDS011;2393;50.560;12.636;2023-05-20T12:09:41;8.60;;;6.07;;
4758;SDS011;2393;50.560;12.636;2023-05-20T12:12:10;8.17;;;6.77;;
4758;SDS011;2393;50.560;12.636;2023-05-20T12:14:39;8.30;;;5.87;;
4758;SDS011;2393;50.560;12.636;2023-05-20T12:17:07;8.23;;;7.13;;
4758;SDS011;2393;50.560;12.636;2023-05-20T12:19:35;9.93;;;6.40;;
4758;SDS011;2393;50.560;12.636;2023-05-20T12:22:07;18.40;;;6.90;;
4758;SDS011;2393;50.560;12.636;2023-05-20T12:24:36;11.80;;;6.90;;
4758;SDS011;2393;50.560;12.636;2023-05-20T12:27:04;8.20;;;6.73;;
4758;SDS011;2393;50.560;12.636;2023-05-20T12:29:33;7.00;;;6.10;;
4758;SDS011;2393;50.560;12.636;2023-05-20T12:32:01;9.23;;;6.57;;
4758;SDS011;2393;50.560;12.636;2023-05-20T12:34:29;11.43;;;6.10;;
4758;SDS011;2393;50.560;12.636;2023-05-20T12:36:58;9.47;;;6.80;;
4758;SDS011;2393;50.560;12.636;2023-05-20T12:39:26;9.90;;;7.10;;
4758;SDS011;2393;50.560;12.636;2023-05-20T12:41:56;8.60;;;6.70;;
4758;SDS011;2393;50.560;12.636;2023-05-20T12:44:24;9.40;;;6.30;;
4758;SDS011;2393;50.560;12.636;2023-05-20T12:46:53;6.93;;;5.73;;
4758;SDS011;2393;50.560;12.636;2023-05-20T12:49:21;7.20;;;5.97;;
4758;SDS011;2393;50.560;12.636;2023-05-20T12:51:49;7.60;;;6.60;;
4758;SDS011;2393;50.560;12.636;2023-05-20T12:54:18;8.67;;;6.77;;
4758;SDS011;2393;50.560;12.636;2023-05-20T12:56:47;7.40;;;5.83;;
4758;SDS011;2393;50.560;12.636;2023-05-20T12:59:16;13.40;;;7.37;;
4758;SDS011;2393;50.560;12.636;2023-05-20T13:01:44;7.40;;;5.70;;
4758;SDS011;2393;50.560;12.636;2023-05-20T13:04:12;8.37;;;5.90;;
4758;SDS011;2393;50.560;12.636;2023-05-20T13:06:41;6.43;;;5.47;;
4758;SDS011;2393;50.560;12.636;2023-05-20T13:09:09;7.27;;;5.87;;
4758;SDS011;2393;50.560;12.636;2023-05-20T13:11:39;13.93;;;6.00;;
4758;SDS011;2393;50.560;12.636;2023-05-20T13:14:07;9.57;;;6.50;;
4758;SDS011;2393;50.560;12.636;2023-05-20T13:16:36;5.40;;;4.70;;
4758;SDS011;2393;50.560;12.636;2023-05-20T13:19:05;7.50;;;6.40;;
4758;SDS011;2393;50.560;12.636;2023-05-20T13:21:34;15.00;;;6.17;;
4758;SDS011;2393;50.560;12.636;2023-05-20T13:24:02;12.00;;;5.33;;
4758;SDS011;2393;50.560;12.636;2023-05-20T13:26:31;14.00;;;6.97;;
4758;SDS011;2393;50.560;12.636;2023-05-20T13:28:59;16.63;;;7.20;;
4758;SDS011;2393;50.560;12.636;2023-05-20T13:31:27;8.17;;;5.70;;
4758;SDS011;2393;50.560;12.636;2023-05-20T13:33:57;8.20;;;6.80;;
4758;SDS011;2393;50.560;12.636;2023-05-20T13:36:26;6.27;;;5.70;;
4758;SDS011;2393;50.560;12.636;2023-05-20T13:38:54;7.00;;;5.50;;
4758;SDS011;2393;50.560;12.636;2023-05-20T13:41:22;7.73;;;5.83;;
4758;SDS011;2393;50.560;12.636;2023-05-20T13:43:51;7.80;;;6.03;;
4758;SDS011;2393;50.560;12.636;2023-05-20T13:46:20;10.17;;;5.67;;
4758;SDS011;2393;50.560;12.636;2023-05-20T13:48:48;8.37;;;6.00;;
4758;SDS011;2393;50.560;12.636;2023-05-20T13:51:18;11.80;;;5.50;;
4758;SDS011;2393;50.560;12.636;2023-05-20T13:53:46;9.93;;;6.67;;
4758;SDS011;2393;50.560;12.636;2023-05-20T13:56:14;9.00;;;5.77;;
4758;SDS011;2393;50.560;12.636;2023-05-20T13:58:42;8.27;;;6.63;;
4758;SDS011;2393;50.560;12.636;2023-05-20T14:01:10;9.80;;;5.67;;
4758;SDS011;2393;50.560;12.636;2023-05-20T14:03:38;8.63;;;5.93;;
4758;SDS011;2393;50.560;12.636;2023-05-20T14:06:07;10.73;;;6.20;;
4758;SDS011;2393;50.560;12.636;2023-05-20T14:08:37;10.40;;;6.20;;
4758;SDS011;2393;50.560;12.636;2023-05-20T14:11:05;7.97;;;5.80;;
4758;SDS011;2393;50.560;12.636;2023-05-20T14:13:33;13.63;;;6.83;;
4758;SDS011;2393;50.560;12.636;2023-05-20T14:16:02;12.33;;;6.00;;
4758;SDS011;2393;50.560;12.636;2023-05-20T14:18:30;12.73;;;6.60;;
4758;SDS011;2393;50.560;12.636;2023-05-20T14:20:58;9.00;;;6.90;;
4758;SDS011;2393;50.560;12.636;2023-05-20T14:23:26;10.60;;;7.13;;
4758;SDS011;2393;50.560;12.636;2023-05-20T14:25:56;8.20;;;6.10;;
4758;SDS011;2393;50.560;12.636;2023-05-20T14:28:24;14.60;;;6.20;;
4758;SDS011;2393;50.560;12.636;2023-05-20T14:30:52;10.57;;;7.33;;
4758;SDS011;2393;50.560;12.636;2023-05-20T14:33:20;8.90;;;7.23;;
4758;SDS011;2393;50.560;12.636;2023-05-20T14:35:48;7.03;;;6.00;;
4758;SDS011;2393;50.560;12.636;2023-05-20T14:38:16;9.40;;;5.87;;
4758;SDS011;2393;50.560;12.636;2023-05-20T14:40:46;20.23;;;6.17;;
4758;SDS011;2393;50.560;12.636;2023-05-20T14:43:16;10.67;;;6.93;;
4758;SDS011;2393;50.560;12.636;2023-05-20T14:45:44;9.20;;;6.07;;
4758;SDS011;2393;50.560;12.636;2023-05-20T14:48:14;10.60;;;7.40;;
4758;SDS011;2393;50.560;12.636;2023-05-20T14:50:42;9.40;;;6.73;;
4758;SDS011;2393;50.560;12.636;2023-05-20T14:53:10;11.80;;;6.90;;
4758;SDS011;2393;50.560;12.636;2023-05-20T14:55:39;9.67;;;7.27;;
4758;SDS011;2393;50.560;12.636;2023-05-20T14:58:07;10.73;;;7.57;;